Time;durP1;ratioP1;P1;durP2;ratioP2;P2;SDS_P1;SDS_P2;PMS_P1;PMS_P2;Temp;Humidity;BMP_temperature;BMP_pressure;BME280_temperature;BME280_humidity;BME280_pressure;Samples;Min_cycle;Max_cycle;Signal;HPM_P1;HPM_P2
2021/07/25 00:01:44;;;;;;;19.50;12.60;;;18.10;99.90;;;;;;4955338;28;20202;-60
2021/07/25 00:04:10;;;;;;;16.13;12.33;;;18.00;99.90;;;;;;4954549;28;20187;-61
2021/07/25 00:06:36;;;;;;;20.13;12.37;;;18.10;99.90;;;;;;4955020;28;20269;-60
2021/07/25 00:09:10;;;;;;;18.87;12.50;;;18.10;99.90;;;;;;4955749;28;20179;-60
2021/07/25 00:11:36;;;;;;;19.53;12.80;;;18.10;99.90;;;;;;4966054;28;20273;-60
2021/07/25 00:14:15;;;;;;;18.33;12.00;;;18.10;99.90;;;;;;4953294;28;20513;-61
2021/07/25 00:16:41;;;;;;;18.17;12.43;;;18.00;99.90;;;;;;4967389;28;20191;-60
2021/07/25 00:19:09;;;;;;;14.13;11.33;;;18.00;99.90;;;;;;4949649;28;20488;-60
2021/07/25 00:21:56;;;;;;;18.87;12.30;;;18.00;99.90;;;;;;4958235;28;20249;-60
2021/07/25 00:24:28;;;;;;;16.53;11.80;;;18.00;99.90;;;;;;4950528;28;20826;-60
2021/07/25 00:26:56;;;;;;;18.93;11.30;;;18.00;99.90;;;;;;4959531;28;21010;-60
2021/07/25 00:29:25;;;;;;;21.03;12.20;;;17.90;99.90;;;;;;4967502;28;20470;-60
2021/07/25 00:31:53;;;;;;;17.00;11.30;;;17.90;99.90;;;;;;4954583;28;20476;-60
2021/07/25 00:34:19;;;;;;;17.30;12.23;;;17.90;99.90;;;;;;4934639;28;20480;-59
2021/07/25 00:36:45;;;;;;;16.43;11.30;;;17.90;99.90;;;;;;4966464;28;20434;-61
2021/07/25 00:39:14;;;;;;;15.80;11.70;;;17.80;99.90;;;;;;4966017;28;20569;-60
2021/07/25 00:41:40;;;;;;;24.27;11.83;;;17.80;99.90;;;;;;4947800;29;20250;-59
2021/07/25 00:44:05;;;;;;;14.50;10.70;;;17.80;99.90;;;;;;4945500;28;20427;-60
2021/07/25 00:46:38;;;;;;;18.00;11.93;;;17.80;99.90;;;;;;4951558;28;20273;-60
2021/07/25 00:49:07;;;;;;;16.33;11.73;;;17.80;99.90;;;;;;4948883;28;20190;-60
2021/07/25 00:51:33;;;;;;;19.57;12.60;;;17.80;99.90;;;;;;4951867;28;20422;-60
2021/07/25 00:53:59;;;;;;;19.07;11.93;;;17.80;99.90;;;;;;4950234;29;20500;-60
2021/07/25 00:56:25;;;;;;;21.10;11.43;;;17.70;99.90;;;;;;4952198;28;20946;-60
2021/07/25 00:58:53;;;;;;;19.20;11.87;;;17.70;99.90;;;;;;4951406;28;20218;-60
2021/07/25 01:01:22;;;;;;;17.40;12.40;;;17.70;99.90;;;;;;4947174;28;20290;-61
2021/07/25 01:04:09;;;;;;;16.77;12.53;;;17.70;99.90;;;;;;4948309;28;20508;-61
2021/07/25 01:06:56;;;;;;;17.23;12.53;;;17.70;99.90;;;;;;4947015;29;20441;-59
2021/07/25 01:09:53;;;;;;;18.50;13.10;;;17.70;99.90;;;;;;4958394;28;20430;-60
2021/07/25 01:12:39;;;;;;;21.27;12.30;;;17.70;99.90;;;;;;4923189;28;20434;-60
2021/07/25 01:15:05;;;;;;;18.63;12.20;;;17.70;99.90;;;;;;4950618;28;20508;-60
2021/07/25 01:17:38;;;;;;;16.90;11.67;;;17.70;99.90;;;;;;4950231;28;20481;-60
2021/07/25 01:20:11;;;;;;;19.80;12.00;;;17.70;99.90;;;;;;4951870;28;20998;-60
2021/07/25 01:22:45;;;;;;;18.23;12.20;;;17.70;99.90;;;;;;4944232;28;20489;-60
2021/07/25 01:25:16;;;;;;;16.70;11.10;;;17.70;99.90;;;;;;4950630;28;20443;-61
2021/07/25 01:28:00;;;;;;;16.97;10.97;;;17.70;99.90;;;;;;4955040;28;20410;-60
2021/07/25 01:30:34;;;;;;;14.83;10.63;;;17.70;99.90;;;;;;4941012;28;20430;-60
2021/07/25 01:33:12;;;;;;;18.13;11.70;;;17.70;99.90;;;;;;4947002;28;20426;-60
2021/07/25 01:35:42;;;;;;;17.80;11.50;;;17.70;99.90;;;;;;4963559;28;20489;-61
2021/07/25 01:38:10;;;;;;;20.50;12.10;;;17.70;99.90;;;;;;4950318;28;20459;-60
2021/07/25 01:40:36;;;;;;;22.97;11.17;;;17.60;99.90;;;;;;4951963;29;20645;-60
2021/07/25 01:43:03;;;;;;;20.43;12.13;;;17.60;99.90;;;;;;4966080;28;20525;-59
2021/07/25 01:45:31;;;;;;;16.47;12.20;;;17.60;99.90;;;;;;4950526;28;20217;-60
2021/07/25 01:48:03;;;;;;;13.03;10.43;;;17.60;99.90;;;;;;4947059;28;20438;-61
2021/07/25 01:50:32;;;;;;;15.07;10.93;;;17.60;99.90;;;;;;4948547;29;20432;-60
2021/07/25 01:53:00;;;;;;;18.57;11.40;;;17.60;99.90;;;;;;4951396;29;20432;-60
2021/07/25 01:55:29;;;;;;;16.83;11.90;;;17.60;99.90;;;;;;4947008;28;20513;-60
2021/07/25 01:57:54;;;;;;;21.30;11.87;;;17.60;99.90;;;;;;4949425;28;20801;-60
2021/07/25 02:00:22;;;;;;;20.20;12.20;;;17.60;99.90;;;;;;4958840;28;20461;-60
2021/07/25 02:02:51;;;;;;;18.23;11.10;;;17.60;99.90;;;;;;4946848;28;20257;-61
2021/07/25 02:05:16;;;;;;;15.13;10.50;;;17.60;99.90;;;;;;4947817;28;20429;-60
2021/07/25 02:07:45;;;;;;;18.53;11.90;;;17.60;99.90;;;;;;4951044;28;20701;-60
2021/07/25 02:10:14;;;;;;;16.73;11.50;;;17.50;99.90;;;;;;4950968;28;20185;-60
2021/07/25 02:12:45;;;;;;;23.43;12.73;;;17.60;99.90;;;;;;4946771;29;20442;-60
2021/07/25 02:15:14;;;;;;;16.70;12.43;;;17.50;99.90;;;;;;4948137;28;20931;-60
2021/07/25 02:17:45;;;;;;;22.93;13.10;;;17.60;99.90;;;;;;4945772;29;20434;-60
2021/07/25 02:20:14;;;;;;;23.20;14.30;;;17.60;99.90;;;;;;4950191;28;20549;-60
2021/07/25 02:22:40;;;;;;;21.57;15.13;;;17.60;99.90;;;;;;4950661;29;20426;-60
2021/07/25 02:25:06;;;;;;;25.60;15.60;;;17.60;99.90;;;;;;4956642;28;20442;-60
2021/07/25 02:27:32;;;;;;;21.37;14.13;;;17.60;99.90;;;;;;4948946;29;20189;-58
2021/07/25 02:29:57;;;;;;;25.60;13.40;;;17.60;99.90;;;;;;4941123;28;20438;-60
2021/07/25 02:32:27;;;;;;;17.30;11.97;;;17.60;99.90;;;;;;4957481;28;20270;-62
2021/07/25 02:34:55;;;;;;;17.77;12.63;;;17.60;99.90;;;;;;4942929;28;20222;-60
2021/07/25 02:37:27;;;;;;;19.10;13.00;;;17.60;99.90;;;;;;4963231;28;21229;-60
2021/07/25 02:39:52;;;;;;;20.03;12.70;;;17.60;99.90;;;;;;4948805;29;20517;-60
2021/07/25 02:42:21;;;;;;;21.03;13.37;;;17.60;99.90;;;;;;4948033;28;20426;-60
2021/07/25 02:44:46;;;;;;;21.00;13.47;;;17.60;99.90;;;;;;4946910;28;20592;-61
2021/07/25 02:47:12;;;;;;;24.30;15.77;;;17.70;99.90;;;;;;4954621;28;20414;-61
2021/07/25 02:49:38;;;;;;;24.20;17.23;;;17.70;99.90;;;;;;4948438;28;20173;-60
2021/07/25 02:52:06;;;;;;;26.43;17.90;;;17.70;99.90;;;;;;4942666;28;20426;-60
2021/07/25 02:54:41;;;;;;;32.10;18.53;;;17.70;99.90;;;;;;4949610;28;20207;-61
2021/07/25 02:57:09;;;;;;;33.53;19.63;;;17.70;99.90;;;;;;4955531;28;20417;-60
2021/07/25 02:59:35;;;;;;;28.07;18.43;;;17.70;99.90;;;;;;4954199;28;20426;-60
2021/07/25 03:02:03;;;;;;;26.60;18.40;;;17.70;99.90;;;;;;4963452;28;20433;-60
2021/07/25 03:04:32;;;;;;;28.43;18.23;;;17.60;99.90;;;;;;4948416;28;20240;-60
2021/07/25 03:07:01;;;;;;;26.33;17.80;;;17.60;99.90;;;;;;4948930;29;20418;-60
2021/07/25 03:09:27;;;;;;;25.73;16.00;;;17.60;99.90;;;;;;4946829;29;20513;-61
2021/07/25 03:11:52;;;;;;;27.73;17.33;;;17.60;99.90;;;;;;4950086;28;20410;-61
2021/07/25 03:14:24;;;;;;;34.17;17.40;;;17.60;99.90;;;;;;4948189;28;20712;-60
2021/07/25 03:16:49;;;;;;;25.20;16.57;;;17.60;99.90;;;;;;4964566;28;20182;-60
2021/07/25 03:19:21;;;;;;;19.80;13.63;;;17.60;99.90;;;;;;4946740;28;20438;-60
2021/07/25 03:21:46;;;;;;;18.23;12.30;;;17.60;99.90;;;;;;4948850;28;20202;-60
2021/07/25 03:24:12;;;;;;;18.60;11.83;;;17.50;99.90;;;;;;4941870;28;20477;-59
2021/07/25 03:26:43;;;;;;;14.87;10.60;;;17.50;99.90;;;;;;4948847;28;20229;-59
2021/07/25 03:29:09;;;;;;;13.07;9.33;;;17.50;99.90;;;;;;4949490;28;20186;-60
2021/07/25 03:31:40;;;;;;;10.37;8.47;;;17.50;99.90;;;;;;4950170;28;20422;-60
2021/07/25 03:34:06;;;;;;;11.20;8.50;;;17.50;99.90;;;;;;4950358;28;20199;-60
2021/07/25 03:36:32;;;;;;;12.00;9.27;;;17.50;99.90;;;;;;4941467;28;20491;-60
2021/07/25 03:39:00;;;;;;;11.17;8.23;;;17.50;99.90;;;;;;4949861;28;20183;-60
2021/07/25 03:41:26;;;;;;;12.03;7.77;;;17.50;99.90;;;;;;4949865;28;20695;-60
2021/07/25 03:43:54;;;;;;;8.57;6.97;;;17.50;99.90;;;;;;4944320;28;20434;-60
2021/07/25 03:46:19;;;;;;;10.20;7.23;;;17.50;99.90;;;;;;4950587;28;20214;-61
2021/07/25 03:48:45;;;;;;;10.57;7.20;;;17.50;99.90;;;;;;4948588;29;20500;-60
2021/07/25 03:51:14;;;;;;;10.83;7.20;;;17.50;99.90;;;;;;4952763;28;20685;-60
2021/07/25 03:53:57;;;;;;;13.30;8.10;;;17.50;99.90;;;;;;4945317;28;20170;-60
2021/07/25 03:56:26;;;;;;;9.30;6.93;;;17.50;99.90;;;;;;4949494;28;20452;-60
2021/07/25 03:58:54;;;;;;;10.17;7.67;;;17.50;99.90;;;;;;4946063;28;20433;-60
2021/07/25 04:01:22;;;;;;;8.70;6.77;;;17.50;99.90;;;;;;4957184;28;20458;-60
2021/07/25 04:03:48;;;;;;;9.63;6.90;;;17.50;99.90;;;;;;4946660;28;20434;-60
2021/07/25 04:06:14;;;;;;;9.47;7.10;;;17.50;99.90;;;;;;4950634;28;20484;-60
2021/07/25 04:08:39;;;;;;;9.67;7.90;;;17.50;99.90;;;;;;4945381;28;20653;-60
2021/07/25 04:11:07;;;;;;;10.80;7.10;;;17.50;99.90;;;;;;4950210;29;20521;-60
2021/07/25 04:13:33;;;;;;;11.20;8.30;;;17.50;99.90;;;;;;4948349;28;20672;-60
2021/07/25 04:15:58;;;;;;;10.37;7.63;;;17.50;99.90;;;;;;4949395;28;20540;-59
2021/07/25 04:18:24;;;;;;;10.63;7.47;;;17.50;99.90;;;;;;4944137;28;20213;-60
2021/07/25 04:20:50;;;;;;;10.17;7.70;;;17.50;99.90;;;;;;4951244;28;20190;-60
2021/07/25 04:23:15;;;;;;;9.83;7.80;;;17.50;99.90;;;;;;4951322;28;20175;-60
2021/07/25 04:25:41;;;;;;;10.93;7.63;;;17.50;99.90;;;;;;4950071;28;20206;-60
2021/07/25 04:28:07;;;;;;;12.80;7.40;;;17.50;99.90;;;;;;4948511;28;20217;-60
2021/07/25 04:30:34;;;;;;;11.77;7.97;;;17.50;99.90;;;;;;4952597;29;20182;-60
2021/07/25 04:33:03;;;;;;;9.80;6.90;;;17.50;99.90;;;;;;4952494;28;20686;-60
2021/07/25 04:35:31;;;;;;;10.80;7.57;;;17.50;99.90;;;;;;4946123;28;21028;-60
2021/07/25 04:37:57;;;;;;;11.43;7.57;;;17.50;99.90;;;;;;4952790;28;20422;-61
2021/07/25 04:40:24;;;;;;;10.90;7.70;;;17.50;99.90;;;;;;4952635;28;20465;-60
2021/07/25 04:42:56;;;;;;;11.30;7.97;;;17.50;99.90;;;;;;4965826;28;20465;-61
2021/07/25 04:45:25;;;;;;;11.07;7.33;;;17.50;99.90;;;;;;4943044;28;20466;-58
2021/07/25 04:48:15;;;;;;;14.70;7.80;;;17.50;99.90;;;;;;4948333;28;20516;-59
2021/07/25 04:50:44;;;;;;;11.43;7.37;;;17.50;99.90;;;;;;4951308;29;20781;-59
2021/07/25 04:53:23;;;;;;;11.17;7.87;;;17.50;99.90;;;;;;4947017;29;20438;-60
2021/07/25 04:55:58;;;;;;;16.27;9.10;;;17.50;99.90;;;;;;4948583;28;20809;-59
2021/07/25 04:58:46;;;;;;;14.40;8.63;;;17.50;99.90;;;;;;4959702;28;20442;-59
2021/07/25 05:01:15;;;;;;;15.00;9.70;;;17.60;99.90;;;;;;4949144;28;20548;-59
2021/07/25 05:03:41;;;;;;;12.63;8.40;;;17.60;99.90;;;;;;4944789;28;20421;-58
2021/07/25 05:06:12;;;;;;;11.57;8.30;;;17.60;99.90;;;;;;4954471;28;20433;-59
2021/07/25 05:08:38;;;;;;;14.67;9.10;;;17.60;99.90;;;;;;4951072;28;20414;-59
2021/07/25 05:11:20;;;;;;;11.20;8.27;;;17.60;99.90;;;;;;4947476;28;21004;-58
2021/07/25 05:13:49;;;;;;;20.03;9.07;;;17.60;99.90;;;;;;4950082;28;20418;-59
2021/07/25 05:16:45;;;;;;;12.00;8.60;;;17.60;99.90;;;;;;4946640;29;20543;-59
2021/07/25 05:19:11;;;;;;;12.43;8.83;;;17.70;99.90;;;;;;4949416;28;20529;-58
2021/07/25 05:21:42;;;;;;;14.93;8.70;;;17.70;99.90;;;;;;4948173;28;21114;-58
2021/07/25 05:24:09;;;;;;;17.83;8.93;;;17.70;99.90;;;;;;4949906;28;20174;-59
2021/07/25 05:26:36;;;;;;;16.70;10.20;;;17.70;99.90;;;;;;4952403;28;20525;-59
2021/07/25 05:29:02;;;;;;;14.50;9.10;;;17.70;99.90;;;;;;4952659;28;20528;-59
2021/07/25 05:31:33;;;;;;;13.13;8.97;;;17.70;99.90;;;;;;4952265;28;20424;-59
2021/07/25 05:34:00;;;;;;;14.20;9.50;;;17.60;99.90;;;;;;4943467;29;20466;-59
2021/07/25 05:36:25;;;;;;;17.50;9.27;;;17.60;99.90;;;;;;4962770;28;20449;-59
2021/07/25 05:38:52;;;;;;;13.40;8.77;;;17.60;99.90;;;;;;4947186;28;20478;-59
2021/07/25 05:41:18;;;;;;;12.83;8.97;;;17.60;99.90;;;;;;4951278;28;20206;-59
2021/07/25 05:43:44;;;;;;;11.00;9.13;;;17.60;99.90;;;;;;4945292;28;20427;-58
2021/07/25 05:46:09;;;;;;;15.60;10.60;;;17.60;99.90;;;;;;4945785;28;20222;-59
2021/07/25 05:48:35;;;;;;;14.80;10.57;;;17.60;99.90;;;;;;4984305;23;20224;-58
2021/07/25 05:51:03;;;;;;;13.40;9.90;;;17.70;99.90;;;;;;5003210;28;20181;-57
2021/07/25 05:53:32;;;;;;;13.50;9.33;;;17.70;99.90;;;;;;4997496;28;20192;-58
2021/07/25 05:55:57;;;;;;;15.03;9.17;;;17.70;99.90;;;;;;5001587;28;20961;-58
2021/07/25 05:58:23;;;;;;;14.60;10.40;;;17.70;99.90;;;;;;4997783;28;20550;-58
2021/07/25 06:00:49;;;;;;;15.83;9.67;;;17.70;99.90;;;;;;4997109;28;20204;-58
2021/07/25 06:03:14;;;;;;;16.37;9.97;;;17.60;99.90;;;;;;4999555;28;20173;-58
2021/07/25 06:05:40;;;;;;;14.77;9.40;;;17.70;99.90;;;;;;5001252;28;20177;-60
2021/07/25 06:08:08;;;;;;;13.90;10.23;;;17.60;99.90;;;;;;5000370;28;20382;-59
2021/07/25 06:10:35;;;;;;;12.00;9.90;;;17.70;99.90;;;;;;5000667;28;20184;-58
2021/07/25 06:13:04;;;;;;;14.00;8.90;;;17.70;99.90;;;;;;5017400;28;21020;-58
2021/07/25 06:15:31;;;;;;;13.43;10.27;;;17.70;99.90;;;;;;4994334;28;20483;-63
2021/07/25 06:17:57;;;;;;;13.13;9.43;;;17.70;99.90;;;;;;4995081;28;20536;-56
2021/07/25 06:20:23;;;;;;;14.70;10.20;;;17.80;99.90;;;;;;4997528;28;20849;-57
2021/07/25 06:22:51;;;;;;;16.60;9.87;;;17.80;99.90;;;;;;4997000;28;20176;-60
2021/07/25 06:25:23;;;;;;;17.63;10.70;;;17.80;99.90;;;;;;5000801;28;20435;-56
2021/07/25 06:27:54;;;;;;;16.57;10.30;;;17.80;99.90;;;;;;4985807;28;20530;-61
2021/07/25 06:30:22;;;;;;;15.30;11.00;;;17.90;99.90;;;;;;5002159;28;21047;-55
2021/07/25 06:33:01;;;;;;;16.50;10.90;;;17.90;99.90;;;;;;4998141;28;20434;-55
2021/07/25 06:35:29;;;;;;;16.00;10.20;;;18.00;99.90;;;;;;4999820;28;20427;-56
2021/07/25 06:37:55;;;;;;;14.70;10.87;;;18.10;99.90;;;;;;4995611;28;20462;-56
2021/07/25 06:40:21;;;;;;;16.10;10.50;;;18.20;99.90;;;;;;5006726;28;20578;-57
2021/07/25 06:42:47;;;;;;;13.93;10.03;;;18.30;99.90;;;;;;5000193;28;20515;-56
2021/07/25 06:45:13;;;;;;;11.03;7.90;;;18.50;99.90;;;;;;5003524;28;20427;-56
2021/07/25 06:47:39;;;;;;;16.47;10.93;;;18.60;99.90;;;;;;5000089;28;20256;-56
2021/07/25 06:50:05;;;;;;;40.10;14.93;;;18.60;99.90;;;;;;5000392;28;20546;-57
2021/07/25 06:52:30;;;;;;;12.63;9.00;;;18.70;99.90;;;;;;4999841;28;20486;-57
2021/07/25 06:54:56;;;;;;;15.33;10.10;;;18.80;99.90;;;;;;4999997;28;20514;-57
2021/07/25 06:57:23;;;;;;;16.60;9.53;;;18.90;99.90;;;;;;5001804;28;20608;-56
2021/07/25 06:59:48;;;;;;;12.20;8.50;;;19.00;99.90;;;;;;5000487;28;20222;-57
2021/07/25 07:02:14;;;;;;;13.37;8.90;;;19.00;99.90;;;;;;5004699;28;20458;-57
2021/07/25 07:04:39;;;;;;;14.63;8.40;;;19.10;99.90;;;;;;5000152;28;20173;-57
2021/07/25 07:07:05;;;;;;;14.90;8.83;;;19.10;99.90;;;;;;5004577;28;20279;-56
2021/07/25 07:09:31;;;;;;;13.17;9.07;;;19.10;99.90;;;;;;4993549;28;20204;-55
2021/07/25 07:11:58;;;;;;;11.70;8.53;;;19.10;99.90;;;;;;5003298;28;20195;-57
2021/07/25 07:16:52;;;;;;;12.23;8.40;;;19.00;99.90;;;;;;5001516;28;21141;-55
2021/07/25 07:19:17;;;;;;;12.90;9.30;;;19.00;99.90;;;;;;5002446;28;20482;-56
2021/07/25 07:21:43;;;;;;;12.17;9.20;;;18.90;99.90;;;;;;5003500;28;20231;-56
2021/07/25 07:24:09;;;;;;;12.50;8.20;;;18.80;99.90;;;;;;4995575;28;20188;-55
2021/07/25 07:26:34;;;;;;;11.30;7.67;;;18.80;99.90;;;;;;5020870;23;20211;-58
2021/07/25 07:29:00;;;;;;;12.07;7.60;;;18.70;99.90;;;;;;5025262;28;20232;-59
2021/07/25 07:31:26;;;;;;;12.80;8.77;;;18.70;99.90;;;;;;5017522;28;20254;-58
2021/07/25 07:33:51;;;;;;;12.10;8.13;;;18.60;99.90;;;;;;5019857;28;20211;-59
2021/07/25 07:36:17;;;;;;;11.27;8.13;;;18.60;99.90;;;;;;5019630;28;20204;-59
2021/07/25 07:38:42;;;;;;;11.50;9.00;;;18.50;99.90;;;;;;5018236;28;20173;-58
2021/07/25 07:41:08;;;;;;;12.40;9.00;;;18.50;99.90;;;;;;5019615;28;20204;-59
2021/07/25 07:43:34;;;;;;;11.40;9.37;;;18.50;99.90;;;;;;5023201;28;20235;-60
2021/07/25 07:45:59;;;;;;;13.80;8.67;;;18.50;99.90;;;;;;5018604;28;20197;-59
2021/07/25 07:48:25;;;;;;;12.50;8.80;;;18.50;99.90;;;;;;5021095;28;20172;-59
2021/07/25 07:50:51;;;;;;;12.83;8.60;;;18.60;99.90;;;;;;5020431;28;20257;-60
2021/07/25 07:53:19;;;;;;;13.77;8.03;;;18.60;99.90;;;;;;5023563;28;20180;-59
2021/07/25 07:55:45;;;;;;;14.67;8.90;;;18.60;99.90;;;;;;5022174;28;20179;-59
2021/07/25 07:58:11;;;;;;;13.00;9.00;;;18.70;99.90;;;;;;5021813;28;20438;-58
2021/07/25 08:00:36;;;;;;;12.50;9.20;;;18.70;99.90;;;;;;5021388;28;20196;-58
2021/07/25 08:03:04;;;;;;;12.30;9.57;;;18.80;99.90;;;;;;5017185;28;20180;-59
2021/07/25 08:05:30;;;;;;;11.73;9.00;;;18.90;99.90;;;;;;5035763;28;20617;-59
2021/07/25 08:07:58;;;;;;;12.37;7.60;;;19.00;99.90;;;;;;5021810;28;20446;-59
2021/07/25 08:10:24;;;;;;;10.10;8.47;;;19.10;99.90;;;;;;5017660;28;20255;-57
2021/07/25 08:12:50;;;;;;;12.27;8.57;;;19.20;99.90;;;;;;5024981;28;20517;-58
2021/07/25 08:15:18;;;;;;;13.37;8.87;;;19.40;99.90;;;;;;5020438;28;20296;-60
2021/07/25 08:17:44;;;;;;;10.10;7.23;;;19.70;99.90;;;;;;5023486;28;20196;-59
2021/07/25 08:20:10;;;;;;;10.30;7.03;;;20.00;99.90;;;;;;5023570;28;20497;-60
2021/07/25 08:22:36;;;;;;;9.67;7.30;;;20.20;99.90;;;;;;5021824;28;20458;-59
2021/07/25 08:25:03;;;;;;;11.80;6.63;;;20.20;99.90;;;;;;5020383;28;20438;-59
2021/07/25 08:27:29;;;;;;;10.20;7.10;;;20.30;99.90;;;;;;5025633;28;20521;-59
2021/07/25 08:29:55;;;;;;;7.80;6.17;;;20.20;99.90;;;;;;5021856;28;20438;-59
2021/07/25 08:32:20;;;;;;;9.60;7.03;;;20.10;99.90;;;;;;5021391;28;20180;-59
2021/07/25 08:34:46;;;;;;;8.97;6.40;;;20.00;99.90;;;;;;5021427;28;20200;-59
2021/07/25 08:37:12;;;;;;;9.40;7.10;;;20.00;99.90;;;;;;5022228;28;20196;-59
2021/07/25 08:39:37;;;;;;;10.90;8.33;;;19.90;99.90;;;;;;5018659;28;20346;-58
2021/07/25 08:42:08;;;;;;;11.40;7.70;;;19.90;99.90;;;;;;5019289;28;20207;-57
2021/07/25 08:44:55;;;;;;;11.77;8.17;;;19.80;99.90;;;;;;5035292;28;20180;-60
2021/07/25 08:47:28;;;;;;;10.30;7.57;;;19.70;99.90;;;;;;5021478;28;20520;-56
2021/07/25 08:49:58;;;;;;;17.03;7.57;;;19.60;99.90;;;;;;5021605;28;20482;-56
2021/07/25 08:52:29;;;;;;;8.93;6.90;;;19.50;99.90;;;;;;5023113;28;21113;-62
2021/07/25 08:54:56;;;;;;;11.13;7.90;;;19.30;99.90;;;;;;5014013;28;20438;-61
2021/07/25 08:57:24;;;;;;;13.80;7.20;;;19.30;99.90;;;;;;5020929;28;20812;-60
2021/07/25 08:59:53;;;;;;;12.33;8.07;;;19.20;99.90;;;;;;5022224;28;20435;-60
2021/07/25 09:02:24;;;;;;;10.60;8.07;;;19.10;99.90;;;;;;5018867;28;20561;-58
2021/07/25 09:04:51;;;;;;;11.57;8.27;;;19.10;99.90;;;;;;5016579;28;20431;-59
2021/07/25 09:07:19;;;;;;;11.30;7.60;;;19.10;99.90;;;;;;5019554;28;20454;-59
2021/07/25 09:09:47;;;;;;;11.80;7.60;;;19.00;99.90;;;;;;5020884;28;20438;-58
2021/07/25 09:12:15;;;;;;;14.37;8.20;;;19.00;99.90;;;;;;5025622;28;20430;-59
2021/07/25 09:14:49;;;;;;;14.70;8.10;;;19.00;99.90;;;;;;5024275;28;20437;-59
2021/07/25 09:17:14;;;;;;;12.13;7.73;;;19.00;99.90;;;;;;5024520;28;20442;-62
2021/07/25 09:20:19;;;;;;;11.43;7.63;;;18.90;99.90;;;;;;5022316;28;20451;-60
2021/07/25 09:22:48;;;;;;;10.73;7.73;;;18.90;99.90;;;;;;5025440;28;20179;-61
2021/07/25 09:25:19;;;;;;;10.30;7.63;;;18.90;99.90;;;;;;5027497;28;20418;-60
2021/07/25 09:28:08;;;;;;;14.13;7.93;;;18.90;99.90;;;;;;5027569;28;20465;-60
2021/07/25 09:30:34;;;;;;;10.00;7.93;;;18.90;99.90;;;;;;5033884;28;20418;-60
2021/07/25 09:33:00;;;;;;;13.17;6.80;;;18.90;99.90;;;;;;5028591;28;20461;-59
2021/07/25 09:35:39;;;;;;;8.40;6.90;;;18.90;99.90;;;;;;5027116;28;20434;-60
2021/07/25 09:38:05;;;;;;;9.37;7.07;;;18.80;99.90;;;;;;5029165;28;20426;-59
2021/07/25 09:40:37;;;;;;;9.83;7.70;;;18.90;99.90;;;;;;5043442;28;20507;-59
2021/07/25 09:43:21;;;;;;;10.83;7.20;;;18.90;99.90;;;;;;5029294;28;20190;-58
2021/07/25 09:45:56;;;;;;;9.70;7.43;;;18.90;99.90;;;;;;5025219;28;20509;-58
2021/07/25 09:48:26;;;;;;;13.13;8.63;;;18.90;99.90;;;;;;5028464;28;20965;-60
2021/07/25 09:50:55;;;;;;;9.77;7.27;;;19.00;99.90;;;;;;5025211;28;20431;-61
2021/07/25 09:53:21;;;;;;;8.47;7.03;;;19.00;99.90;;;;;;5027938;28;20508;-60
2021/07/25 09:55:47;;;;;;;12.50;7.53;;;19.00;99.90;;;;;;5028475;28;21005;-60
2021/07/25 09:58:13;;;;;;;9.33;6.60;;;19.00;99.90;;;;;;5027596;28;20446;-59
2021/07/25 10:00:45;;;;;;;11.87;7.27;;;19.00;99.90;;;;;;5025668;28;20505;-60
2021/07/25 10:03:24;;;;;;;13.23;8.03;;;19.00;99.90;;;;;;5014888;28;20180;-60
2021/07/25 10:05:53;;;;;;;7.73;6.20;;;19.00;99.90;;;;;;5027315;28;20410;-59
2021/07/25 10:08:25;;;;;;;9.20;6.50;;;18.90;99.90;;;;;;5023870;28;20432;-60
2021/07/25 10:10:54;;;;;;;8.83;6.33;;;18.90;99.90;;;;;;5010164;28;20439;-59
2021/07/25 10:13:26;;;;;;;11.50;7.47;;;18.80;99.90;;;;;;5027492;28;20441;-60
2021/07/25 10:16:16;;;;;;;15.10;6.93;;;18.80;99.90;;;;;;5027231;28;20831;-59
2021/07/25 10:18:44;;;;;;;10.00;6.90;;;18.70;99.90;;;;;;5026433;28;20517;-61
2021/07/25 10:21:10;;;;;;;11.67;7.33;;;18.70;99.90;;;;;;5028260;28;20938;-59
2021/07/25 10:23:43;;;;;;;10.77;7.30;;;18.60;99.90;;;;;;5027258;28;20422;-60
2021/07/25 10:26:11;;;;;;;11.10;7.60;;;18.60;99.90;;;;;;5026875;28;20764;-60
2021/07/25 10:28:42;;;;;;;11.80;7.47;;;18.60;99.90;;;;;;5027363;28;20510;-60
2021/07/25 10:31:08;;;;;;;12.10;7.70;;;18.50;99.90;;;;;;5028685;28;20476;-61
2021/07/25 10:33:38;;;;;;;8.80;7.10;;;18.50;99.90;;;;;;5026845;28;20799;-61
2021/07/25 10:36:07;;;;;;;9.40;7.27;;;18.50;99.90;;;;;;5023699;28;20295;-60
2021/07/25 10:38:35;;;;;;;10.53;7.60;;;18.40;99.90;;;;;;5027334;28;20423;-60
2021/07/25 10:41:08;;;;;;;9.10;7.17;;;18.40;99.90;;;;;;5027273;28;20970;-60
2021/07/25 10:43:33;;;;;;;10.53;6.40;;;18.40;99.90;;;;;;5010583;28;20443;-59
2021/07/25 10:46:22;;;;;;;9.07;6.47;;;18.40;99.90;;;;;;5022817;28;20894;-59
2021/07/25 10:49:00;;;;;;;8.93;6.77;;;18.30;99.90;;;;;;5018752;28;20425;-59
2021/07/25 10:52:12;;;;;;;11.43;7.47;;;18.30;99.90;;;;;;5024425;28;20469;-60
2021/07/25 10:54:50;;;;;;;18.77;9.20;;;18.30;99.90;;;;;;5007108;28;21016;-60
2021/07/25 10:57:17;;;;;;;12.90;8.33;;;18.30;99.90;;;;;;5027733;28;20469;-59
2021/07/25 10:59:52;;;;;;;7.93;6.63;;;18.30;99.90;;;;;;5026490;28;20457;-60
2021/07/25 11:02:29;;;;;;;9.40;6.83;;;18.30;99.90;;;;;;5026135;28;20793;-59
2021/07/25 11:05:05;;;;;;;11.20;6.47;;;18.30;99.90;;;;;;5026320;28;20422;-58
2021/07/25 11:07:30;;;;;;;9.40;5.90;;;18.30;99.90;;;;;;5027205;28;20425;-59
2021/07/25 11:10:05;;;;;;;9.23;6.93;;;18.20;99.90;;;;;;5024873;28;20465;-59
2021/07/25 11:12:54;;;;;;;11.70;6.10;;;18.20;99.90;;;;;;5026751;28;20195;-60
2021/07/25 11:15:31;;;;;;;10.53;6.30;;;18.10;99.90;;;;;;5027248;28;20437;-60
2021/07/25 11:18:08;;;;;;;8.63;6.47;;;18.10;99.90;;;;;;5025448;28;20797;-60
2021/07/25 11:20:39;;;;;;;12.40;6.87;;;18.10;99.90;;;;;;5028024;28;20453;-60
2021/07/25 11:23:35;;;;;;;10.00;7.53;;;18.20;99.90;;;;;;5043840;28;20920;-59
2021/07/25 11:26:32;;;;;;;8.70;6.93;;;18.20;99.90;;;;;;5020633;28;20474;-59
2021/07/25 11:29:07;;;;;;;13.60;7.00;;;18.20;99.90;;;;;;5016197;28;20939;-59
2021/07/25 11:31:41;;;;;;;9.60;7.37;;;18.20;99.90;;;;;;5027444;28;20402;-59
2021/07/25 11:34:12;;;;;;;9.33;6.87;;;18.20;99.90;;;;;;5025152;28;20429;-59
2021/07/25 11:36:37;;;;;;;14.10;7.40;;;18.20;99.90;;;;;;5043971;28;20430;-60
2021/07/25 11:39:08;;;;;;;14.50;7.07;;;18.20;99.90;;;;;;5028312;28;20949;-58
2021/07/25 11:41:36;;;;;;;10.43;6.87;;;18.20;99.90;;;;;;5021514;28;20570;-59
2021/07/25 11:44:14;;;;;;;11.93;7.67;;;18.20;99.90;;;;;;5025163;28;20530;-60
2021/07/25 11:46:47;;;;;;;9.60;7.00;;;18.20;99.90;;;;;;5021691;28;20500;-60
2021/07/25 11:49:17;;;;;;;8.90;5.80;;;18.20;99.90;;;;;;5025464;28;20418;-59
2021/07/25 11:51:58;;;;;;;9.13;6.63;;;18.20;99.90;;;;;;5040669;28;20476;-62
2021/07/25 11:54:31;;;;;;;10.10;6.60;;;18.20;99.90;;;;;;5042671;28;20430;-60
2021/07/25 11:57:01;;;;;;;7.83;6.23;;;18.20;99.90;;;;;;5005235;28;20451;-59
2021/07/25 11:59:29;;;;;;;8.83;6.13;;;18.20;99.90;;;;;;5041245;28;20510;-59
2021/07/25 12:01:58;;;;;;;7.10;5.70;;;18.20;99.90;;;;;;5040899;28;20454;-59
2021/07/25 12:04:28;;;;;;;11.77;7.17;;;18.20;99.90;;;;;;5024094;28;20480;-59
2021/07/25 12:07:02;;;;;;;12.37;6.33;;;18.20;99.90;;;;;;5024878;28;20469;-61
2021/07/25 12:09:29;;;;;;;9.20;5.70;;;18.20;99.90;;;;;;5029030;28;20409;-60
2021/07/25 12:12:13;;;;;;;7.93;6.43;;;18.20;99.90;;;;;;5011232;28;20949;-59
2021/07/25 12:14:43;;;;;;;8.93;7.20;;;18.20;99.90;;;;;;5024610;28;20434;-60
2021/07/25 12:17:09;;;;;;;10.43;7.23;;;18.20;99.90;;;;;;5027020;28;20461;-59
2021/07/25 12:19:40;;;;;;;8.80;7.27;;;18.20;99.90;;;;;;5026613;28;20410;-60
2021/07/25 12:22:18;;;;;;;12.93;7.50;;;18.10;99.90;;;;;;5025338;28;20512;-60
2021/07/25 12:24:49;;;;;;;9.00;7.47;;;18.10;99.90;;;;;;5026715;28;20417;-60
2021/07/25 12:27:25;;;;;;;8.50;6.77;;;18.10;99.90;;;;;;5026689;28;20454;-60
2021/07/25 12:29:51;;;;;;;9.93;7.33;;;18.10;99.90;;;;;;5027014;28;20528;-59
2021/07/25 12:32:28;;;;;;;9.83;7.57;;;18.20;99.90;;;;;;5028916;28;20426;-61
2021/07/25 12:35:13;;;;;;;11.23;6.70;;;18.30;99.90;;;;;;5029716;28;20176;-60
2021/07/25 12:37:51;;;;;;;10.83;6.47;;;18.30;99.90;;;;;;5029812;28;20454;-61
2021/07/25 12:40:28;;;;;;;8.20;6.63;;;18.40;99.90;;;;;;5029375;28;20477;-60
2021/07/25 12:43:00;;;;;;;9.87;7.03;;;18.50;99.90;;;;;;5029873;28;20489;-60
2021/07/25 12:45:34;;;;;;;8.97;6.17;;;18.50;99.90;;;;;;5028548;28;20450;-59
2021/07/25 12:48:29;;;;;;;9.30;6.73;;;18.70;99.90;;;;;;5027845;28;20442;-61
2021/07/25 12:53:42;;;;;;;12.93;7.00;;;18.80;99.90;;;;;;5030478;28;21137;-59
2021/07/25 12:56:16;;;;;;;10.83;7.40;;;18.90;99.90;;;;;;5025628;28;20448;-60